createdAt,value
2023-04-09T00:00:12.564Z,100.00
2023-04-09T00:02:39.236Z,100.00
2023-04-09T00:05:07.390Z,100.00
2023-04-09T00:07:34.158Z,100.00
2023-04-09T00:10:00.912Z,100.00
2023-04-09T00:12:27.416Z,100.00
2023-04-09T00:14:53.994Z,100.00
2023-04-09T00:17:20.655Z,100.00
2023-04-09T00:19:47.205Z,100.00
2023-04-09T00:22:13.718Z,100.00
2023-04-09T00:24:40.663Z,100.00
2023-04-09T00:27:07.261Z,100.00
2023-04-09T00:29:33.779Z,100.00
2023-04-09T00:32:00.338Z,100.00
2023-04-09T00:34:27.069Z,100.00
2023-04-09T00:36:53.618Z,100.00
2023-04-09T00:39:20.387Z,100.00
2023-04-09T00:41:46.886Z,100.00
2023-04-09T00:44:13.379Z,100.00
2023-04-09T00:46:39.887Z,100.00
2023-04-09T00:49:06.590Z,100.00
2023-04-09T00:51:33.528Z,100.00
2023-04-09T00:54:00.092Z,100.00
2023-04-09T00:56:27.216Z,100.00
2023-04-09T00:58:54.188Z,100.00
2023-04-09T01:01:20.907Z,100.00
2023-04-09T01:03:47.691Z,100.00
2023-04-09T01:06:38.668Z,100.00
2023-04-09T01:09:11.616Z,100.00
2023-04-09T01:11:42.078Z,100.00
2023-04-09T01:14:31.450Z,100.00
2023-04-09T01:17:04.407Z,100.00
2023-04-09T01:19:44.691Z,100.00
2023-04-09T01:22:38.245Z,100.00
2023-04-09T01:25:17.239Z,100.00
2023-04-09T01:28:06.691Z,100.00
2023-04-09T01:30:33.483Z,100.00
2023-04-09T01:33:00.215Z,100.00
2023-04-09T01:35:28.604Z,100.00
2023-04-09T01:37:56.091Z,100.00
2023-04-09T01:40:22.737Z,100.00
2023-04-09T01:42:49.693Z,100.00
2023-04-09T01:45:16.447Z,100.00
2023-04-09T01:47:43.142Z,100.00
2023-04-09T01:50:10.414Z,100.00
2023-04-09T01:52:37.021Z,100.00
2023-04-09T01:55:03.700Z,100.00
2023-04-09T01:57:30.944Z,100.00
2023-04-09T01:59:57.439Z,100.00
2023-04-09T02:02:57.782Z,100.00
2023-04-09T02:05:27.131Z,100.00
2023-04-09T02:07:56.510Z,100.00
2023-04-09T02:10:24.740Z,100.00
2023-04-09T02:12:51.890Z,100.00
2023-04-09T02:15:19.867Z,100.00
2023-04-09T02:17:46.480Z,100.00
2023-04-09T02:20:18.449Z,100.00
2023-04-09T02:22:48.485Z,100.00
2023-04-09T02:25:15.565Z,100.00
2023-04-09T02:27:42.003Z,100.00
2023-04-09T02:30:08.779Z,100.00
2023-04-09T02:32:35.318Z,100.00
2023-04-09T02:35:02.005Z,100.00
2023-04-09T02:37:28.709Z,100.00
2023-04-09T02:39:55.186Z,100.00
2023-04-09T02:42:21.816Z,100.00
2023-04-09T02:44:48.321Z,100.00
2023-04-09T02:47:16.011Z,100.00
2023-04-09T02:49:42.540Z,100.00
2023-04-09T02:52:10.817Z,100.00
2023-04-09T02:54:37.348Z,100.00
2023-04-09T02:57:03.887Z,100.00
2023-04-09T02:59:30.381Z,100.00
2023-04-09T03:01:56.958Z,100.00
2023-04-09T03:04:23.568Z,100.00
2023-04-09T03:06:51.618Z,100.00
2023-04-09T03:09:18.117Z,100.00
2023-04-09T03:11:44.588Z,100.00
2023-04-09T03:14:11.160Z,100.00
2023-04-09T03:16:37.642Z,100.00
2023-04-09T03:19:04.085Z,100.00
2023-04-09T03:21:30.558Z,100.00
2023-04-09T03:23:57.169Z,100.00
2023-04-09T03:26:23.615Z,100.00
2023-04-09T03:28:50.409Z,100.00
2023-04-09T03:31:17.218Z,100.00
2023-04-09T03:33:43.775Z,100.00
2023-04-09T03:36:10.354Z,100.00
2023-04-09T03:38:36.851Z,100.00
2023-04-09T03:41:03.401Z,100.00
2023-04-09T03:43:29.920Z,100.00
2023-04-09T03:45:56.333Z,100.00
2023-04-09T03:48:22.908Z,100.00
2023-04-09T03:50:49.402Z,100.00
2023-04-09T03:53:15.949Z,100.00
2023-04-09T03:55:42.433Z,100.00
2023-04-09T03:58:08.947Z,100.00
2023-04-09T04:00:35.389Z,100.00
2023-04-09T04:03:02.111Z,100.00
2023-04-09T04:05:28.690Z,100.00
2023-04-09T04:07:55.135Z,100.00
2023-04-09T04:10:21.670Z,100.00
2023-04-09T04:12:48.209Z,100.00
2023-04-09T04:15:14.869Z,100.00
2023-04-09T04:17:41.475Z,100.00
2023-04-09T04:20:08.579Z,100.00
2023-04-09T04:22:35.706Z,100.00
2023-04-09T04:25:03.454Z,100.00
2023-04-09T04:27:29.964Z,100.00
2023-04-09T04:29:58.746Z,100.00
2023-04-09T04:32:25.343Z,100.00
2023-04-09T04:34:51.892Z,100.00
2023-04-09T04:37:18.418Z,100.00
2023-04-09T04:39:44.863Z,100.00
2023-04-09T04:42:11.290Z,100.00
2023-04-09T04:44:37.749Z,100.00
2023-04-09T04:47:04.187Z,100.00
2023-04-09T04:49:31.681Z,100.00
2023-04-09T04:51:58.191Z,100.00
2023-04-09T04:54:24.735Z,100.00
2023-04-09T04:56:51.216Z,100.00
2023-04-09T04:59:17.823Z,100.00
2023-04-09T05:01:44.385Z,100.00
2023-04-09T05:04:10.926Z,100.00
2023-04-09T05:06:37.421Z,100.00
2023-04-09T05:09:03.992Z,100.00
2023-04-09T05:11:30.504Z,100.00
2023-04-09T05:13:57.012Z,100.00
2023-04-09T05:16:23.795Z,100.00
2023-04-09T05:18:50.904Z,100.00
2023-04-09T05:21:17.609Z,100.00
2023-04-09T05:23:44.047Z,100.00
2023-04-09T05:26:10.847Z,100.00
2023-04-09T05:28:37.956Z,100.00
2023-04-09T05:31:04.545Z,100.00
2023-04-09T05:33:35.347Z,100.00
2023-04-09T05:36:01.854Z,100.00
2023-04-09T05:38:28.298Z,100.00
2023-04-09T05:40:54.733Z,100.00
2023-04-09T05:43:21.907Z,100.00
2023-04-09T05:45:48.350Z,100.00
2023-04-09T05:48:14.937Z,100.00
2023-04-09T05:50:53.890Z,100.00
2023-04-09T05:53:22.346Z,100.00
2023-04-09T05:55:51.851Z,100.00
2023-04-09T05:58:21.804Z,100.00
2023-04-09T06:00:48.291Z,100.00
2023-04-09T06:03:14.992Z,100.00
2023-04-09T06:05:41.607Z,100.00
2023-04-09T06:08:08.142Z,100.00
2023-04-09T06:10:34.660Z,100.00
2023-04-09T06:13:01.276Z,100.00
2023-04-09T06:15:28.117Z,100.00
2023-04-09T06:17:55.606Z,100.00
2023-04-09T06:20:23.018Z,100.00
2023-04-09T06:22:49.535Z,100.00
2023-04-09T06:25:16.232Z,100.00
2023-04-09T06:27:42.860Z,100.00
2023-04-09T06:30:10.053Z,100.00
2023-04-09T06:32:46.952Z,100.00
2023-04-09T06:35:17.894Z,100.00
2023-04-09T06:37:44.290Z,100.00
2023-04-09T06:40:11.677Z,100.00
2023-04-09T06:42:38.256Z,100.00
2023-04-09T06:45:08.791Z,100.00
2023-04-09T06:47:36.257Z,100.00
2023-04-09T06:50:03.277Z,100.00
2023-04-09T06:52:29.844Z,100.00
2023-04-09T06:54:56.399Z,100.00
2023-04-09T06:57:22.998Z,100.00
2023-04-09T06:59:49.541Z,100.00
2023-04-09T07:02:16.228Z,100.00
2023-04-09T07:04:42.895Z,100.00
2023-04-09T07:07:09.520Z,100.00
2023-04-09T07:09:36.468Z,100.00
2023-04-09T07:12:03.046Z,100.00
2023-04-09T07:14:29.506Z,100.00
2023-04-09T07:17:03.343Z,100.00
2023-04-09T07:19:30.897Z,100.00
2023-04-09T07:22:01.391Z,100.00
2023-04-09T07:24:28.195Z,100.00
2023-04-09T07:26:55.168Z,100.00
2023-04-09T07:29:22.369Z,100.00
2023-04-09T07:31:48.982Z,100.00
2023-04-09T07:34:15.522Z,100.00
2023-04-09T07:36:43.086Z,100.00
2023-04-09T07:39:09.595Z,100.00
2023-04-09T07:41:36.787Z,100.00
2023-04-09T07:44:03.671Z,100.00
2023-04-09T07:46:30.232Z,100.00
2023-04-09T07:48:56.686Z,100.00
2023-04-09T07:51:23.383Z,100.00
2023-04-09T07:53:49.940Z,100.00
2023-04-09T07:56:16.455Z,100.00
2023-04-09T07:58:43.223Z,100.00
2023-04-09T08:01:09.740Z,100.00
2023-04-09T08:03:36.725Z,100.00
2023-04-09T08:06:03.759Z,100.00
2023-04-09T08:08:30.965Z,100.00
2023-04-09T08:10:58.065Z,100.00
2023-04-09T08:13:27.425Z,100.00
2023-04-09T08:15:54.055Z,100.00
2023-04-09T08:18:20.554Z,100.00
2023-04-09T08:20:47.022Z,100.00
2023-04-09T08:23:13.730Z,99.92
2023-04-09T08:25:40.357Z,100.00
2023-04-09T08:28:06.837Z,100.00
2023-04-09T08:30:34.283Z,98.78
2023-04-09T08:33:01.872Z,100.00
2023-04-09T08:35:30.704Z,100.00
2023-04-09T08:37:57.614Z,95.66
2023-04-09T08:40:24.274Z,96.58
2023-04-09T08:42:56.816Z,96.67
2023-04-09T08:45:24.103Z,97.33
2023-04-09T08:47:51.610Z,98.19
2023-04-09T08:50:18.297Z,93.91
2023-04-09T08:52:47.981Z,94.54
2023-04-09T08:55:14.589Z,90.94
2023-04-09T08:57:41.989Z,90.13
2023-04-09T09:00:09.323Z,89.80
2023-04-09T09:02:36.321Z,89.98
2023-04-09T09:05:03.012Z,89.05
2023-04-09T09:07:30.294Z,87.13
2023-04-09T09:10:02.503Z,82.95
2023-04-09T09:12:40.262Z,85.27
2023-04-09T09:15:28.245Z,84.94
2023-04-09T09:17:59.681Z,81.33
2023-04-09T09:20:27.253Z,81.49
2023-04-09T09:22:55.840Z,80.72
2023-04-09T09:25:26.596Z,79.86
2023-04-09T09:27:54.134Z,75.65
2023-04-09T09:30:25.925Z,74.98
2023-04-09T09:33:11.541Z,75.27
2023-04-09T09:35:54.657Z,73.47
2023-04-09T09:38:21.387Z,74.25
2023-04-09T09:40:49.611Z,71.28
2023-04-09T09:43:16.313Z,72.43
2023-04-09T09:45:44.241Z,75.00
2023-04-09T09:48:11.852Z,72.15
2023-04-09T09:50:39.642Z,73.85
2023-04-09T09:53:06.485Z,71.24
2023-04-09T09:55:34.205Z,70.75
2023-04-09T09:58:13.099Z,68.07
2023-04-09T10:00:40.386Z,67.34
2023-04-09T10:03:13.324Z,65.69
2023-04-09T10:05:41.227Z,63.54
2023-04-09T10:08:08.096Z,64.54
2023-04-09T10:10:35.161Z,58.93
2023-04-09T10:13:02.147Z,60.42
2023-04-09T10:15:29.624Z,60.57
2023-04-09T10:17:56.758Z,61.50
2023-04-09T10:20:27.494Z,61.77
2023-04-09T10:22:55.638Z,60.23
2023-04-09T10:25:22.435Z,58.61
2023-04-09T10:28:02.460Z,63.42
2023-04-09T10:30:36.202Z,62.83
2023-04-09T10:33:14.314Z,63.25
2023-04-09T10:35:41.059Z,58.32
2023-04-09T10:38:08.674Z,57.90
2023-04-09T10:40:36.486Z,59.10
2023-04-09T10:43:04.086Z,59.91
2023-04-09T10:45:40.820Z,59.85
2023-04-09T10:48:12.922Z,60.18
2023-04-09T10:50:39.792Z,57.06
2023-04-09T10:53:06.527Z,59.62
2023-04-09T10:55:38.632Z,58.08
2023-04-09T10:58:11.998Z,54.23
2023-04-09T11:00:47.394Z,54.68
2023-04-09T11:03:28.815Z,54.71
2023-04-09T11:06:09.058Z,50.96
2023-04-09T11:08:36.215Z,51.31
2023-04-09T11:11:03.534Z,52.05
2023-04-09T11:13:31.708Z,51.02
2023-04-09T11:16:00.131Z,49.13
2023-04-09T11:18:28.444Z,49.53
2023-04-09T11:20:59.533Z,48.60
2023-04-09T11:23:26.211Z,48.44
2023-04-09T11:25:53.385Z,48.93
2023-04-09T11:28:20.587Z,50.33
2023-04-09T11:30:47.158Z,50.10
2023-04-09T11:33:14.032Z,50.52
2023-04-09T11:35:40.757Z,49.08
2023-04-09T11:38:08.985Z,49.50
2023-04-09T11:40:35.984Z,49.72
2023-04-09T11:43:03.170Z,48.86
2023-04-09T11:45:31.133Z,48.66
2023-04-09T11:47:58.149Z,47.83
2023-04-09T11:50:25.237Z,48.18
2023-04-09T11:52:52.479Z,48.84
2023-04-09T11:55:26.678Z,50.74
2023-04-09T11:58:00.874Z,50.68
2023-04-09T12:00:28.920Z,47.91
2023-04-09T12:03:03.519Z,48.81
2023-04-09T12:05:32.891Z,48.36
2023-04-09T12:08:07.381Z,47.35
2023-04-09T12:10:38.259Z,47.58
2023-04-09T12:13:13.835Z,48.64
2023-04-09T12:15:43.312Z,48.76
2023-04-09T12:18:11.339Z,47.82
2023-04-09T12:20:40.027Z,47.26
2023-04-09T12:23:07.548Z,47.46
2023-04-09T12:25:38.902Z,46.90
2023-04-09T12:28:06.962Z,47.89
2023-04-09T12:30:33.876Z,48.21
2023-04-09T12:33:00.517Z,48.16
2023-04-09T12:35:27.174Z,48.78
2023-04-09T12:37:53.869Z,48.72
2023-04-09T12:40:21.171Z,48.51
2023-04-09T12:42:48.228Z,48.85
2023-04-09T12:45:16.808Z,49.82
2023-04-09T12:47:43.840Z,49.17
2023-04-09T12:50:11.593Z,47.49
2023-04-09T12:52:38.421Z,48.12
2023-04-09T12:55:06.234Z,48.40
2023-04-09T12:57:33.051Z,49.49
2023-04-09T12:59:59.913Z,49.03
2023-04-09T13:02:26.902Z,49.05
2023-04-09T13:04:53.598Z,48.54
2023-04-09T13:07:21.426Z,49.05
2023-04-09T13:09:50.430Z,48.06
2023-04-09T13:12:17.328Z,49.61
2023-04-09T13:14:46.489Z,50.19
2023-04-09T13:17:13.401Z,49.63
2023-04-09T13:19:42.076Z,50.03
2023-04-09T13:22:09.440Z,49.77
2023-04-09T13:24:36.363Z,49.69
2023-04-09T13:27:06.979Z,50.51
2023-04-09T13:29:33.449Z,50.54
2023-04-09T13:32:02.681Z,52.61
2023-04-09T13:34:29.151Z,53.99
2023-04-09T13:36:55.707Z,55.55
2023-04-09T13:39:22.464Z,56.99
2023-04-09T13:41:48.980Z,59.00
2023-04-09T13:44:15.768Z,59.16
2023-04-09T13:46:42.342Z,58.17
2023-04-09T13:49:08.932Z,57.13
2023-04-09T13:51:35.481Z,58.18
2023-04-09T13:54:03.806Z,60.57
2023-04-09T13:56:32.156Z,60.93
2023-04-09T13:58:58.734Z,58.54
2023-04-09T14:01:27.415Z,58.75
2023-04-09T14:03:54.236Z,59.90
2023-04-09T14:06:21.046Z,58.40
2023-04-09T14:08:47.573Z,58.41
2023-04-09T14:11:15.776Z,61.58
2023-04-09T14:13:42.291Z,62.76
2023-04-09T14:16:09.335Z,59.96
2023-04-09T14:18:36.458Z,60.30
2023-04-09T14:21:03.029Z,60.53
2023-04-09T14:23:29.737Z,59.83
2023-04-09T14:25:56.387Z,60.80
2023-04-09T14:28:22.817Z,60.19
2023-04-09T14:30:49.351Z,60.58
2023-04-09T14:33:15.809Z,59.81
2023-04-09T14:35:42.326Z,59.22
2023-04-09T14:38:09.858Z,60.08
2023-04-09T14:40:36.655Z,60.24
2023-04-09T14:43:03.220Z,59.98
2023-04-09T14:45:30.833Z,59.58
2023-04-09T14:47:57.737Z,61.41
2023-04-09T14:50:24.358Z,60.34
2023-04-09T14:52:50.897Z,59.73
2023-04-09T14:55:17.327Z,58.61
2023-04-09T14:57:44.043Z,58.70
2023-04-09T15:00:11.962Z,58.32
2023-04-09T15:02:38.678Z,60.11
2023-04-09T15:05:05.744Z,59.62
2023-04-09T15:07:32.278Z,61.06
2023-04-09T15:10:00.037Z,61.27
2023-04-09T15:12:28.495Z,61.65
2023-04-09T15:14:56.694Z,60.97
2023-04-09T15:17:24.230Z,59.06
2023-04-09T15:19:51.970Z,59.53
2023-04-09T15:22:18.407Z,60.60
2023-04-09T15:24:44.957Z,60.12
2023-04-09T15:27:11.606Z,58.15
2023-04-09T15:29:38.184Z,58.09
2023-04-09T15:32:04.858Z,58.01
2023-04-09T15:34:31.414Z,56.96
2023-04-09T15:36:57.893Z,55.59
2023-04-09T15:39:24.675Z,54.24
2023-04-09T15:41:51.223Z,54.40
2023-04-09T15:44:17.675Z,53.62
2023-04-09T15:46:44.152Z,51.13
2023-04-09T15:49:10.773Z,51.37
2023-04-09T15:51:37.265Z,51.33
2023-04-09T15:54:04.280Z,50.68
2023-04-09T15:56:30.824Z,51.76
2023-04-09T15:58:57.444Z,51.55
2023-04-09T16:01:23.968Z,51.78
2023-04-09T16:03:52.303Z,52.13
2023-04-09T16:06:19.182Z,51.93
2023-04-09T16:08:45.853Z,52.68
2023-04-09T16:11:12.333Z,54.21
2023-04-09T16:13:38.864Z,55.32
2023-04-09T16:16:07.029Z,54.72
2023-04-09T16:18:35.901Z,56.43
2023-04-09T16:21:02.724Z,58.38
2023-04-09T16:23:30.776Z,59.76
2023-04-09T16:25:57.379Z,60.11
2023-04-09T16:28:23.851Z,61.35
2023-04-09T16:30:50.869Z,61.84
2023-04-09T16:33:17.434Z,62.73
2023-04-09T16:35:44.068Z,63.69
2023-04-09T16:38:10.772Z,65.49
2023-04-09T16:40:37.511Z,66.21
2023-04-09T16:43:04.037Z,66.79
2023-04-09T16:45:30.596Z,67.20
2023-04-09T16:47:57.267Z,67.91
2023-04-09T16:50:24.306Z,68.15
2023-04-09T16:52:50.892Z,68.52
2023-04-09T16:55:17.508Z,67.32
2023-04-09T16:57:44.001Z,67.65
2023-04-09T17:00:10.751Z,68.12
2023-04-09T17:02:37.705Z,68.26
2023-04-09T17:05:04.499Z,68.58
2023-04-09T17:07:31.046Z,68.37
2023-04-09T17:09:58.523Z,68.99
2023-04-09T17:12:24.998Z,69.24
2023-04-09T17:14:51.628Z,68.81
2023-04-09T17:17:18.553Z,69.43
2023-04-09T17:19:45.143Z,68.76
2023-04-09T17:22:13.414Z,69.39
2023-04-09T17:24:40.268Z,69.49
2023-04-09T17:27:07.356Z,70.38
2023-04-09T17:29:34.312Z,70.87
2023-04-09T17:32:00.826Z,72.27
2023-04-09T17:34:27.450Z,71.88
2023-04-09T17:36:59.751Z,72.34
2023-04-09T17:39:27.065Z,73.95
2023-04-09T17:41:56.313Z,73.06
2023-04-09T17:44:24.859Z,74.15
2023-04-09T17:46:51.893Z,74.00
2023-04-09T17:49:18.516Z,75.10
2023-04-09T17:51:45.034Z,75.30
2023-04-09T17:54:11.726Z,75.49
2023-04-09T17:56:39.065Z,76.62
2023-04-09T17:59:06.679Z,77.92
2023-04-09T18:01:33.401Z,77.69
2023-04-09T18:04:01.357Z,77.75
2023-04-09T18:06:28.262Z,80.46
2023-04-09T18:08:54.809Z,80.57
2023-04-09T18:11:21.614Z,80.23
2023-04-09T18:13:48.232Z,80.76
2023-04-09T18:16:14.732Z,80.72
2023-04-09T18:18:41.346Z,81.00
2023-04-09T18:21:07.940Z,82.21
2023-04-09T18:23:34.703Z,82.18
2023-04-09T18:26:01.688Z,82.60
2023-04-09T18:28:28.203Z,82.92
2023-04-09T18:30:54.790Z,82.91
2023-04-09T18:33:21.689Z,83.79
2023-04-09T18:35:48.241Z,83.59
2023-04-09T18:38:14.707Z,84.43
2023-04-09T18:40:43.168Z,84.81
2023-04-09T18:43:12.740Z,85.35
2023-04-09T18:45:42.499Z,86.46
2023-04-09T18:48:09.188Z,86.42
2023-04-09T18:50:36.015Z,86.31
2023-04-09T18:53:03.638Z,86.98
2023-04-09T18:55:30.414Z,87.24
2023-04-09T18:57:57.493Z,87.49
2023-04-09T19:00:24.198Z,88.44
2023-04-09T19:02:51.005Z,88.66
2023-04-09T19:05:18.011Z,88.88
2023-04-09T19:07:44.592Z,89.27
2023-04-09T19:10:11.508Z,89.69
2023-04-09T19:12:38.244Z,89.99
2023-04-09T19:15:06.142Z,89.75
2023-04-09T19:17:34.045Z,90.12
2023-04-09T19:20:00.990Z,90.03
2023-04-09T19:22:28.115Z,90.69
2023-04-09T19:24:54.660Z,90.26
2023-04-09T19:27:21.385Z,91.40
2023-04-09T19:29:47.883Z,91.75
2023-04-09T19:32:15.077Z,92.51
2023-04-09T19:34:41.543Z,92.66
2023-04-09T19:37:08.064Z,93.19
2023-04-09T19:39:34.497Z,93.16
2023-04-09T19:42:01.021Z,94.12
2023-04-09T19:44:27.435Z,93.96
2023-04-09T19:46:53.969Z,94.87
2023-04-09T19:49:20.445Z,95.14
2023-04-09T19:51:47.008Z,96.66
2023-04-09T19:54:15.109Z,97.44
2023-04-09T19:56:42.495Z,97.59
2023-04-09T19:59:09.034Z,97.63
2023-04-09T20:01:36.096Z,98.98
2023-04-09T20:04:03.634Z,100.00
2023-04-09T20:06:30.781Z,100.00
2023-04-09T20:08:57.359Z,100.00
2023-04-09T20:11:23.883Z,100.00
2023-04-09T20:13:50.523Z,100.00
2023-04-09T20:16:17.047Z,100.00
2023-04-09T20:18:43.596Z,100.00
2023-04-09T20:21:14.058Z,100.00
2023-04-09T20:23:40.756Z,100.00
2023-04-09T20:26:11.094Z,100.00
2023-04-09T20:28:37.652Z,100.00
2023-04-09T20:31:04.333Z,100.00
2023-04-09T20:33:30.860Z,100.00
2023-04-09T20:35:57.420Z,100.00
2023-04-09T20:38:24.278Z,100.00
2023-04-09T20:40:52.623Z,100.00
2023-04-09T20:43:19.491Z,100.00
2023-04-09T20:45:45.987Z,100.00
2023-04-09T20:48:12.637Z,100.00
2023-04-09T20:50:39.116Z,100.00
2023-04-09T20:53:05.619Z,100.00
2023-04-09T20:55:32.110Z,100.00
2023-04-09T20:58:00.071Z,100.00
2023-04-09T21:00:27.420Z,100.00
2023-04-09T21:02:54.148Z,100.00
2023-04-09T21:05:23.855Z,100.00
2023-04-09T21:07:52.204Z,100.00
2023-04-09T21:10:18.763Z,100.00
2023-04-09T21:12:45.310Z,100.00
2023-04-09T21:15:11.848Z,100.00
2023-04-09T21:17:38.418Z,100.00
2023-04-09T21:20:05.630Z,100.00
2023-04-09T21:22:32.054Z,100.00
2023-04-09T21:24:58.499Z,100.00
2023-04-09T21:27:24.925Z,100.00
2023-04-09T21:29:51.388Z,100.00
2023-04-09T21:32:17.910Z,100.00
2023-04-09T21:34:44.567Z,100.00
2023-04-09T21:37:11.043Z,100.00
2023-04-09T21:39:38.380Z,100.00
2023-04-09T21:42:06.352Z,100.00
2023-04-09T21:44:33.744Z,100.00
2023-04-09T21:47:01.568Z,100.00
2023-04-09T21:49:28.015Z,100.00
2023-04-09T21:51:56.687Z,100.00
2023-04-09T21:54:23.156Z,100.00
2023-04-09T21:56:49.582Z,100.00
2023-04-09T21:59:16.031Z,100.00
2023-04-09T22:01:42.458Z,100.00
2023-04-09T22:04:09.230Z,100.00
2023-04-09T22:06:35.883Z,100.00
2023-04-09T22:09:02.569Z,100.00
2023-04-09T22:11:29.244Z,100.00
2023-04-09T22:13:57.037Z,100.00
2023-04-09T22:16:24.444Z,100.00
2023-04-09T22:18:51.497Z,100.00
2023-04-09T22:21:18.283Z,100.00
2023-04-09T22:23:44.824Z,100.00
2023-04-09T22:26:12.296Z,100.00
2023-04-09T22:28:39.306Z,100.00
2023-04-09T22:31:06.400Z,100.00
2023-04-09T22:33:32.926Z,100.00
2023-04-09T22:35:59.678Z,100.00
2023-04-09T22:38:26.512Z,100.00
2023-04-09T22:40:53.057Z,100.00
2023-04-09T22:43:19.668Z,100.00
2023-04-09T22:45:55.974Z,100.00
2023-04-09T22:48:23.081Z,100.00
2023-04-09T22:50:50.346Z,100.00
2023-04-09T22:53:19.893Z,100.00
2023-04-09T22:55:47.499Z,100.00
2023-04-09T22:58:14.310Z,100.00
2023-04-09T23:00:41.105Z,100.00
2023-04-09T23:03:07.902Z,100.00
2023-04-09T23:05:34.642Z,100.00
2023-04-09T23:08:01.118Z,100.00
2023-04-09T23:10:27.796Z,100.00
2023-04-09T23:12:54.266Z,100.00
2023-04-09T23:15:20.738Z,100.00
2023-04-09T23:17:47.374Z,100.00
2023-04-09T23:20:14.988Z,100.00
2023-04-09T23:22:42.104Z,100.00
2023-04-09T23:25:09.068Z,100.00
2023-04-09T23:27:35.789Z,100.00
2023-04-09T23:30:02.373Z,100.00
2023-04-09T23:32:28.887Z,100.00
2023-04-09T23:34:57.218Z,100.00
2023-04-09T23:37:23.750Z,100.00
2023-04-09T23:39:50.389Z,100.00
2023-04-09T23:42:17.256Z,100.00
2023-04-09T23:44:44.028Z,100.00
2023-04-09T23:47:11.080Z,100.00
2023-04-09T23:49:37.691Z,100.00
2023-04-09T23:52:04.561Z,100.00
2023-04-09T23:54:30.968Z,100.00
2023-04-09T23:57:00.219Z,100.00
2023-04-09T23:59:26.846Z,100.00
